Terminal Aerodrome Forecast
Issued by NWS Sterling, VA

Home | Current Version | Previous Version | Text Only | Print | Product List | Glossary On
Versions: 1 2 3 4 5 6 7 8 9 10 11 12 13 14 15 16
000
FTUS41 KLWX 251700 RRA
TAFCHO
TAF
KCHO 251741Z 2518/2618 20006KT P6SM BKN100
     FM252300 VRB04KT P6SM OVC040
     FM260700 VRB03KT 3SM -RA OVC025
     FM261400 08005KT 1SM -RASN OVC007=

USA.gov is the U.S. government's official web portal to all federal, state and local government web resources and services.